Mount Moornapa, Australia
Current Conditions -  °F | °C
As of 10:00 PM on Saturday 25 Oct 2014 (Local Time) from YMAY Reporting Station
Scattered Clouds Scattered Clouds  
Wind Chill: 73°   Ceiling: Unl
Heat Index: 73°   Visibility: 6mi
Dew Point: 55°   Wind: 0mph
Humidity: 53%   Direction: NA
Pressure: 29.83"   Gusts: NA
Location:  37.75°S, 147.13°E
Report Text: YMAY 251100Z AUTO 00000KT 9999 // SCT125 23/13 Q1010
Loading
Personal Weather Stations






























Interactive Weather Map
Tropical Storm Tracking
New forecast layout! Learn more

10-Day Weather Forecast

Advertisements
Track Severe Weather on mobile